createdAt,value
2023-03-29T00:01:00.464Z,5.10
2023-03-29T00:03:30.825Z,5.00
2023-03-29T00:06:04.452Z,5.00
2023-03-29T00:08:34.390Z,4.90
2023-03-29T00:11:03.060Z,4.90
2023-03-29T00:13:31.214Z,4.90
2023-03-29T00:15:59.560Z,4.90
2023-03-29T00:18:27.489Z,4.90
2023-03-29T00:20:58.759Z,4.80
2023-03-29T00:23:27.253Z,4.80
2023-03-29T00:25:57.075Z,4.80
2023-03-29T00:28:26.023Z,4.80
2023-03-29T00:31:03.478Z,4.90
2023-03-29T00:33:32.167Z,4.90
2023-03-29T00:36:00.033Z,5.00
2023-03-29T00:38:28.249Z,5.00
2023-03-29T00:40:56.191Z,5.00
2023-03-29T00:43:24.701Z,5.00
2023-03-29T00:45:53.425Z,5.00
2023-03-29T00:48:30.286Z,5.00
2023-03-29T00:51:10.009Z,5.00
2023-03-29T00:53:50.926Z,5.10
2023-03-29T00:56:37.295Z,5.00
2023-03-29T00:59:15.770Z,5.10
2023-03-29T01:02:07.333Z,5.10
2023-03-29T01:04:47.722Z,5.10
2023-03-29T01:07:58.145Z,5.10
2023-03-29T01:10:47.337Z,5.20
2023-03-29T01:13:39.464Z,5.20
2023-03-29T01:16:14.571Z,5.20
2023-03-29T01:18:42.930Z,5.30
2023-03-29T01:21:51.754Z,5.30
2023-03-29T01:25:32.311Z,5.40
2023-03-29T01:28:39.364Z,5.40
2023-03-29T01:31:28.900Z,5.50
2023-03-29T01:34:12.876Z,5.60
2023-03-29T01:37:41.433Z,5.60
2023-03-29T01:40:11.140Z,5.60
2023-03-29T01:43:31.423Z,5.50
2023-03-29T01:46:37.686Z,5.50
2023-03-29T01:49:49.719Z,5.50
2023-03-29T01:52:38.387Z,5.50
2023-03-29T01:55:24.950Z,5.50
2023-03-29T01:57:56.488Z,5.60
2023-03-29T02:00:29.668Z,5.60
2023-03-29T02:03:09.443Z,5.70
2023-03-29T02:05:42.482Z,5.70
2023-03-29T02:08:16.231Z,5.70
2023-03-29T02:10:46.120Z,5.70
2023-03-29T02:13:14.149Z,5.90
2023-03-29T02:15:44.570Z,6.00
2023-03-29T02:18:15.895Z,6.00
2023-03-29T02:20:50.019Z,6.00
2023-03-29T02:23:39.031Z,6.10
2023-03-29T02:26:08.987Z,6.00
2023-03-29T02:28:37.605Z,6.10
2023-03-29T02:31:36.845Z,6.10
2023-03-29T02:34:24.697Z,6.10
2023-03-29T02:37:10.477Z,6.10
2023-03-29T02:39:41.324Z,6.40
2023-03-29T02:42:11.674Z,6.30
2023-03-29T02:44:45.624Z,6.40
2023-03-29T02:47:35.302Z,6.30
2023-03-29T02:50:03.407Z,6.40
2023-03-29T02:52:43.338Z,6.30
2023-03-29T02:55:18.991Z,6.30
2023-03-29T02:57:46.885Z,6.30
2023-03-29T03:00:20.150Z,6.20
2023-03-29T03:02:49.214Z,6.20
2023-03-29T03:05:18.340Z,6.20
2023-03-29T03:07:46.486Z,6.10
2023-03-29T03:10:15.237Z,6.10
2023-03-29T03:12:44.072Z,6.10
2023-03-29T03:15:13.731Z,6.10
2023-03-29T03:17:41.926Z,6.20
2023-03-29T03:20:14.079Z,6.20
2023-03-29T03:22:49.527Z,6.30
2023-03-29T03:25:21.299Z,6.30
2023-03-29T03:27:51.599Z,6.40
2023-03-29T03:30:22.547Z,6.40
2023-03-29T03:33:15.300Z,6.40
2023-03-29T03:35:49.232Z,6.50
2023-03-29T03:38:18.201Z,6.60
2023-03-29T03:40:58.401Z,6.50
2023-03-29T03:43:28.273Z,6.50
2023-03-29T03:45:57.751Z,6.60
2023-03-29T03:48:27.200Z,6.60
2023-03-29T03:51:15.496Z,6.50
2023-03-29T03:53:44.180Z,6.50
2023-03-29T03:56:16.510Z,6.40
2023-03-29T03:59:02.557Z,6.30
2023-03-29T04:01:35.659Z,6.30
2023-03-29T04:04:15.014Z,6.20
2023-03-29T04:06:54.704Z,6.20
2023-03-29T04:09:48.948Z,6.10
2023-03-29T04:12:29.480Z,6.00
2023-03-29T04:14:57.670Z,6.00
2023-03-29T04:17:27.433Z,6.00
2023-03-29T04:20:15.720Z,5.90
2023-03-29T04:22:43.928Z,6.00
2023-03-29T04:25:11.943Z,6.00
2023-03-29T04:27:51.093Z,6.00
2023-03-29T04:30:42.073Z,6.00
2023-03-29T04:33:15.613Z,6.00
2023-03-29T04:35:47.945Z,6.00
2023-03-29T04:38:23.561Z,6.20
2023-03-29T04:40:55.300Z,6.20
2023-03-29T04:43:49.738Z,6.30
2023-03-29T04:46:28.950Z,6.20
2023-03-29T04:49:00.309Z,6.20
2023-03-29T04:51:38.024Z,6.20
2023-03-29T04:54:06.691Z,6.20
2023-03-29T04:56:53.209Z,6.20
2023-03-29T04:59:35.574Z,6.30
2023-03-29T05:02:08.996Z,6.30
2023-03-29T05:04:39.169Z,6.30
2023-03-29T05:07:15.436Z,6.30
2023-03-29T05:09:43.789Z,6.40
2023-03-29T05:12:13.167Z,6.30
2023-03-29T05:14:54.559Z,6.40
2023-03-29T05:17:27.574Z,6.30
2023-03-29T05:20:01.693Z,6.20
2023-03-29T05:22:29.820Z,6.10
2023-03-29T05:24:57.646Z,6.10
2023-03-29T05:27:25.606Z,6.10
2023-03-29T05:30:02.037Z,6.10
2023-03-29T05:32:45.226Z,6.10
2023-03-29T05:35:16.254Z,6.20
2023-03-29T05:37:47.433Z,6.20
2023-03-29T05:40:15.405Z,6.30
2023-03-29T05:43:02.737Z,6.30
2023-03-29T05:45:32.763Z,6.30
2023-03-29T05:48:01.497Z,6.40
2023-03-29T05:50:31.423Z,6.50
2023-03-29T05:52:59.734Z,6.40
2023-03-29T05:55:27.684Z,6.40
2023-03-29T05:57:56.747Z,6.40
2023-03-29T06:00:30.164Z,6.40
2023-03-29T06:03:21.392Z,6.50
2023-03-29T06:06:04.177Z,6.50
2023-03-29T06:08:35.269Z,6.60
2023-03-29T06:11:16.710Z,6.60
2023-03-29T06:14:07.893Z,6.60
2023-03-29T06:16:42.830Z,6.60
2023-03-29T06:19:11.798Z,6.90
2023-03-29T06:21:41.474Z,6.90
2023-03-29T06:24:11.773Z,6.90
2023-03-29T06:26:46.563Z,7.00
2023-03-29T06:29:15.758Z,6.90
2023-03-29T06:31:45.516Z,7.00
2023-03-29T06:34:30.473Z,7.00
2023-03-29T06:37:19.605Z,7.00
2023-03-29T06:39:53.443Z,7.10
2023-03-29T06:42:28.930Z,7.10
2023-03-29T06:45:33.727Z,7.10
2023-03-29T06:48:08.147Z,7.20
2023-03-29T06:50:37.136Z,7.20
2023-03-29T06:53:10.494Z,7.20
2023-03-29T06:55:40.170Z,7.30
2023-03-29T06:58:24.937Z,7.30
2023-03-29T07:01:05.188Z,7.40
2023-03-29T07:03:54.486Z,7.40
2023-03-29T07:06:28.892Z,7.50
2023-03-29T07:08:59.864Z,7.50
2023-03-29T07:11:41.767Z,7.60
2023-03-29T07:14:35.730Z,7.60
2023-03-29T07:17:05.870Z,7.60
2023-03-29T07:19:35.474Z,7.70
2023-03-29T07:22:16.989Z,7.80
2023-03-29T07:24:52.335Z,7.90
2023-03-29T07:27:20.904Z,8.00
2023-03-29T07:29:50.139Z,8.00
2023-03-29T07:32:19.625Z,8.10
2023-03-29T07:35:09.378Z,8.10
2023-03-29T07:37:37.941Z,8.20
2023-03-29T07:40:18.380Z,8.30
2023-03-29T07:43:11.159Z,8.50
2023-03-29T07:45:44.820Z,8.60
2023-03-29T07:48:14.840Z,8.50
2023-03-29T07:50:50.883Z,8.40
2023-03-29T07:53:23.753Z,8.50
2023-03-29T07:55:54.918Z,8.50
2023-03-29T07:58:47.598Z,8.60
2023-03-29T08:01:18.823Z,8.60
2023-03-29T08:04:11.312Z,8.60
2023-03-29T08:07:02.375Z,8.80
2023-03-29T08:09:55.488Z,8.70
2023-03-29T08:12:32.824Z,8.80
2023-03-29T08:15:05.662Z,8.90
2023-03-29T08:17:37.632Z,8.80
2023-03-29T08:20:13.191Z,8.90
2023-03-29T08:22:44.597Z,9.00
2023-03-29T08:25:32.896Z,9.10
2023-03-29T08:28:02.532Z,9.10
2023-03-29T08:30:42.173Z,9.20
2023-03-29T08:33:10.430Z,9.30
2023-03-29T08:35:38.332Z,9.40
2023-03-29T08:38:15.029Z,9.40
2023-03-29T08:40:43.514Z,9.50
2023-03-29T08:44:03.126Z,9.60
2023-03-29T08:47:33.510Z,9.70
2023-03-29T08:50:01.987Z,9.90
2023-03-29T08:52:56.377Z,10.00
2023-03-29T08:55:48.818Z,9.60
2023-03-29T08:58:45.933Z,9.30
2023-03-29T09:01:14.459Z,9.10
2023-03-29T09:04:16.556Z,9.10
2023-03-29T09:07:09.334Z,9.10
2023-03-29T09:09:43.529Z,8.80
2023-03-29T09:12:47.589Z,8.80
2023-03-29T09:15:50.342Z,8.90
2023-03-29T09:19:37.357Z,8.80
2023-03-29T09:22:32.760Z,8.70
2023-03-29T09:26:18.408Z,8.80
2023-03-29T09:29:17.549Z,8.90
2023-03-29T09:31:47.922Z,9.10
2023-03-29T09:34:42.048Z,9.40
2023-03-29T09:37:39.973Z,9.70
2023-03-29T09:40:26.693Z,10.00
2023-03-29T09:43:18.475Z,10.50
2023-03-29T09:45:57.410Z,10.60
2023-03-29T09:48:31.997Z,10.60
2023-03-29T09:51:05.563Z,10.60
2023-03-29T09:53:33.996Z,10.60
2023-03-29T09:56:15.964Z,10.60
2023-03-29T09:58:50.472Z,10.60
2023-03-29T10:01:20.687Z,10.70
2023-03-29T10:03:55.197Z,10.70
2023-03-29T10:06:27.002Z,10.80
2023-03-29T10:08:59.525Z,10.70
2023-03-29T10:11:39.255Z,10.90
2023-03-29T10:14:20.620Z,11.10
2023-03-29T10:16:57.960Z,11.20
2023-03-29T10:19:35.853Z,11.20
2023-03-29T10:22:23.180Z,11.20
2023-03-29T10:24:55.588Z,11.20
2023-03-29T10:27:29.712Z,11.50
2023-03-29T10:30:08.264Z,11.40
2023-03-29T10:32:39.258Z,11.40
2023-03-29T10:35:29.658Z,11.30
2023-03-29T10:38:03.476Z,11.30
2023-03-29T10:40:41.870Z,11.20
2023-03-29T10:43:51.271Z,11.30
2023-03-29T10:46:43.356Z,11.70
2023-03-29T10:49:23.691Z,12.00
2023-03-29T10:51:53.525Z,12.40
2023-03-29T10:54:25.019Z,12.50
2023-03-29T10:57:10.502Z,12.20
2023-03-29T10:59:57.942Z,12.10
2023-03-29T11:03:21.888Z,12.40
2023-03-29T11:07:04.449Z,12.60
2023-03-29T11:10:30.813Z,13.00
2023-03-29T11:13:37.618Z,13.10
2023-03-29T11:16:50.222Z,13.20
2023-03-29T11:19:44.553Z,13.40
2023-03-29T11:22:47.839Z,13.70
2023-03-29T11:25:54.743Z,13.70
2023-03-29T11:28:59.833Z,13.80
2023-03-29T11:32:04.251Z,13.60
2023-03-29T11:35:06.592Z,13.60
2023-03-29T11:38:13.881Z,13.70
2023-03-29T11:41:12.684Z,13.50
2023-03-29T11:44:30.198Z,13.80
2023-03-29T11:47:31.999Z,14.00
2023-03-29T11:50:52.280Z,14.10
2023-03-29T11:54:01.681Z,14.50
2023-03-29T11:56:54.964Z,15.10
2023-03-29T11:59:57.064Z,15.10
2023-03-29T12:02:50.298Z,15.00
2023-03-29T12:05:54.731Z,14.80
2023-03-29T12:08:42.675Z,15.10
2023-03-29T12:11:38.759Z,15.40
2023-03-29T12:14:27.912Z,16.00
2023-03-29T12:17:23.732Z,16.10
2023-03-29T12:20:39.143Z,16.20
2023-03-29T12:23:15.897Z,15.90
2023-03-29T12:26:44.389Z,15.90
2023-03-29T12:29:46.991Z,15.30
2023-03-29T12:33:05.188Z,15.00
2023-03-29T12:37:00.995Z,14.90
2023-03-29T12:39:48.859Z,14.60
2023-03-29T12:42:44.965Z,14.40
2023-03-29T12:45:50.036Z,14.30
2023-03-29T12:48:31.916Z,14.20
2023-03-29T12:51:17.381Z,14.50
2023-03-29T12:53:52.744Z,14.80
2023-03-29T12:56:36.822Z,14.60
2023-03-29T12:59:45.150Z,14.50
2023-03-29T13:02:16.861Z,14.50
2023-03-29T13:04:55.243Z,14.40
2023-03-29T13:07:23.160Z,14.30
2023-03-29T13:10:08.363Z,14.40
2023-03-29T13:12:46.109Z,14.60
2023-03-29T13:15:19.662Z,15.00
2023-03-29T13:18:26.998Z,15.40
2023-03-29T13:21:35.657Z,15.80
2023-03-29T13:25:10.676Z,15.90
2023-03-29T13:28:34.860Z,15.90
2023-03-29T13:32:01.911Z,15.60
2023-03-29T13:35:18.517Z,15.30
2023-03-29T13:38:20.650Z,14.90
2023-03-29T13:40:54.606Z,14.90
2023-03-29T13:43:44.713Z,14.60
2023-03-29T13:46:42.558Z,14.60
2023-03-29T13:49:31.106Z,14.70
2023-03-29T13:52:44.751Z,14.60
2023-03-29T13:55:33.667Z,14.70
2023-03-29T13:59:05.806Z,14.90
2023-03-29T14:01:54.693Z,14.90
2023-03-29T14:04:33.146Z,15.20
2023-03-29T14:07:06.530Z,15.60
2023-03-29T14:09:46.120Z,15.40
2023-03-29T14:12:17.866Z,15.10
2023-03-29T14:14:58.156Z,15.20
2023-03-29T14:17:27.989Z,15.20
2023-03-29T14:20:04.886Z,15.40
2023-03-29T14:22:35.731Z,15.60
2023-03-29T14:25:17.998Z,15.40
2023-03-29T14:27:46.247Z,15.60
2023-03-29T14:30:29.806Z,15.80
2023-03-29T14:32:58.049Z,15.60
2023-03-29T14:35:33.654Z,15.40
2023-03-29T14:38:03.950Z,15.90
2023-03-29T14:40:33.044Z,15.90
2023-03-29T14:43:08.590Z,16.20
2023-03-29T14:45:38.237Z,16.10
2023-03-29T14:48:07.869Z,16.00
2023-03-29T14:50:36.679Z,15.70
2023-03-29T14:53:06.976Z,15.80
2023-03-29T14:55:36.737Z,16.10
2023-03-29T14:58:36.587Z,16.20
2023-03-29T15:01:20.378Z,16.20
2023-03-29T15:04:08.254Z,16.20
2023-03-29T15:06:46.976Z,16.00
2023-03-29T15:09:34.317Z,15.90
2023-03-29T15:12:03.897Z,15.70
2023-03-29T15:14:38.244Z,15.60
2023-03-29T15:17:50.150Z,15.60
2023-03-29T15:20:34.457Z,15.50
2023-03-29T15:23:16.624Z,15.40
2023-03-29T15:25:58.776Z,15.40
2023-03-29T15:28:45.701Z,15.40
2023-03-29T15:31:23.610Z,15.40
2023-03-29T15:34:14.222Z,15.40
2023-03-29T15:36:46.823Z,15.60
2023-03-29T15:39:20.502Z,15.60
2023-03-29T15:41:53.825Z,15.60
2023-03-29T15:44:34.298Z,15.30
2023-03-29T15:47:02.395Z,15.20
2023-03-29T15:49:30.135Z,15.10
2023-03-29T15:51:58.184Z,15.10
2023-03-29T15:54:26.030Z,15.00
2023-03-29T15:57:15.022Z,15.10
2023-03-29T15:59:44.988Z,15.00
2023-03-29T16:02:25.007Z,14.80
2023-03-29T16:04:53.845Z,14.80
2023-03-29T16:07:21.615Z,14.90
2023-03-29T16:09:49.476Z,15.10
2023-03-29T16:12:17.504Z,15.00
2023-03-29T16:14:45.287Z,14.90
2023-03-29T16:17:14.265Z,14.80
2023-03-29T16:19:42.712Z,14.90
2023-03-29T16:22:10.546Z,15.10
2023-03-29T16:24:38.892Z,15.20
2023-03-29T16:27:07.021Z,15.30
2023-03-29T16:29:34.945Z,15.30
2023-03-29T16:32:04.721Z,15.20
2023-03-29T16:34:36.141Z,15.10
2023-03-29T16:37:04.056Z,15.00
2023-03-29T16:39:31.933Z,15.10
2023-03-29T16:42:01.903Z,15.20
2023-03-29T16:44:30.432Z,15.10
2023-03-29T16:46:58.636Z,15.00
2023-03-29T16:49:26.632Z,14.90
2023-03-29T16:51:54.713Z,14.80
2023-03-29T16:54:25.848Z,14.60
2023-03-29T16:56:54.682Z,14.60
2023-03-29T16:59:23.909Z,14.40
2023-03-29T17:01:52.063Z,14.40
2023-03-29T17:04:19.969Z,14.40
2023-03-29T17:06:48.301Z,14.40
2023-03-29T17:09:17.763Z,14.40
2023-03-29T17:11:46.416Z,14.40
2023-03-29T17:14:14.302Z,14.40
2023-03-29T17:16:42.366Z,14.40
2023-03-29T17:19:10.331Z,14.40
2023-03-29T17:21:38.079Z,14.50
2023-03-29T17:24:06.493Z,14.50
2023-03-29T17:26:34.390Z,14.50
2023-03-29T17:29:02.214Z,14.40
2023-03-29T17:31:29.973Z,14.50
2023-03-29T17:33:58.048Z,14.50
2023-03-29T17:36:28.417Z,14.40
2023-03-29T17:38:56.311Z,14.30
2023-03-29T17:41:24.181Z,14.30
2023-03-29T17:43:52.142Z,14.30
2023-03-29T17:46:23.042Z,14.20
2023-03-29T17:48:51.451Z,14.20
2023-03-29T17:51:20.723Z,14.30
2023-03-29T17:53:48.516Z,14.30
2023-03-29T17:56:16.450Z,14.30
2023-03-29T17:58:44.227Z,14.30
2023-03-29T18:01:14.588Z,14.20
2023-03-29T18:03:43.377Z,14.20
2023-03-29T18:06:11.632Z,14.20
2023-03-29T18:08:40.683Z,14.20
2023-03-29T18:11:22.634Z,14.20
2023-03-29T18:13:53.721Z,14.20
2023-03-29T18:16:23.144Z,14.10
2023-03-29T18:18:51.092Z,14.20
2023-03-29T18:21:19.965Z,14.10
2023-03-29T18:23:50.133Z,14.10
2023-03-29T18:26:18.500Z,14.00
2023-03-29T18:28:47.389Z,13.90
2023-03-29T18:31:16.875Z,13.80
2023-03-29T18:33:44.703Z,13.80
2023-03-29T18:36:13.542Z,13.70
2023-03-29T18:38:44.037Z,13.70
2023-03-29T18:41:14.698Z,13.70
2023-03-29T18:43:44.328Z,13.60
2023-03-29T18:46:12.555Z,13.70
2023-03-29T18:48:41.179Z,13.60
2023-03-29T18:51:12.676Z,13.60
2023-03-29T18:53:43.667Z,13.70
2023-03-29T18:56:11.815Z,13.80
2023-03-29T18:58:40.089Z,13.80
2023-03-29T19:01:09.756Z,13.80
2023-03-29T19:03:37.753Z,13.80
2023-03-29T19:06:08.066Z,13.80
2023-03-29T19:08:38.839Z,13.80
2023-03-29T19:11:14.458Z,13.80
2023-03-29T19:13:43.333Z,13.80
2023-03-29T19:16:12.270Z,13.80
2023-03-29T19:18:40.248Z,13.80
2023-03-29T19:21:08.300Z,13.80
2023-03-29T19:23:36.422Z,13.70
2023-03-29T19:26:06.894Z,13.70
2023-03-29T19:28:35.427Z,13.70
2023-03-29T19:31:04.739Z,13.60
2023-03-29T19:33:33.152Z,13.60
2023-03-29T19:36:01.668Z,13.50
2023-03-29T19:38:29.987Z,13.60
2023-03-29T19:40:57.843Z,13.70
2023-03-29T19:43:25.943Z,13.70
2023-03-29T19:45:53.866Z,13.70
2023-03-29T19:48:23.442Z,13.70
2023-03-29T19:50:52.057Z,13.80
2023-03-29T19:53:21.529Z,13.60
2023-03-29T19:55:49.599Z,13.50
2023-03-29T19:58:17.281Z,13.50
2023-03-29T20:00:45.206Z,13.40
2023-03-29T20:03:14.079Z,13.40
2023-03-29T20:05:42.455Z,13.40
2023-03-29T20:08:10.575Z,13.40
2023-03-29T20:10:38.515Z,13.40
2023-03-29T20:13:06.747Z,13.30
2023-03-29T20:15:35.499Z,13.20
2023-03-29T20:18:03.596Z,13.10
2023-03-29T20:20:31.966Z,13.00
2023-03-29T20:23:04.618Z,13.00
2023-03-29T20:25:36.413Z,12.90
2023-03-29T20:28:06.776Z,13.00
2023-03-29T20:30:35.260Z,12.90
2023-03-29T20:33:04.418Z,13.00
2023-03-29T20:35:32.193Z,13.00
2023-03-29T20:38:00.150Z,12.90
2023-03-29T20:40:30.028Z,13.00
2023-03-29T20:42:58.064Z,13.00
2023-03-29T20:45:25.945Z,13.10
2023-03-29T20:47:57.961Z,13.00
2023-03-29T20:50:32.486Z,13.00
2023-03-29T20:53:04.040Z,13.00
2023-03-29T20:55:39.519Z,13.00
2023-03-29T20:58:08.345Z,12.90
2023-03-29T21:00:37.773Z,12.80
2023-03-29T21:03:07.344Z,12.70
2023-03-29T21:05:35.910Z,12.70
2023-03-29T21:08:05.410Z,12.70
2023-03-29T21:10:33.649Z,12.80
2023-03-29T21:13:02.866Z,12.70
2023-03-29T21:15:32.131Z,12.70
2023-03-29T21:18:03.029Z,12.80
2023-03-29T21:20:32.370Z,12.70
2023-03-29T21:23:01.211Z,12.70
2023-03-29T21:25:29.169Z,12.80
2023-03-29T21:27:56.851Z,12.80
2023-03-29T21:30:24.732Z,12.70
2023-03-29T21:32:52.690Z,12.70
2023-03-29T21:35:20.971Z,12.70
2023-03-29T21:37:48.657Z,12.70
2023-03-29T21:40:16.876Z,12.70
2023-03-29T21:42:44.798Z,12.80
2023-03-29T21:45:12.848Z,12.70
2023-03-29T21:47:40.664Z,12.60
2023-03-29T21:50:09.712Z,12.60
2023-03-29T21:52:38.510Z,12.60
2023-03-29T21:55:08.132Z,12.60
2023-03-29T21:57:36.059Z,12.60
2023-03-29T22:00:11.046Z,12.50
2023-03-29T22:02:42.661Z,12.50
2023-03-29T22:05:10.996Z,12.60
2023-03-29T22:07:39.063Z,12.50
2023-03-29T22:10:13.043Z,12.50
2023-03-29T22:12:41.455Z,12.50
2023-03-29T22:15:13.206Z,12.40
2023-03-29T22:17:43.094Z,12.30
2023-03-29T22:20:13.468Z,12.30
2023-03-29T22:22:50.307Z,12.20
2023-03-29T22:25:21.106Z,12.30
2023-03-29T22:27:50.397Z,12.30
2023-03-29T22:30:18.548Z,12.30
2023-03-29T22:32:46.454Z,12.30
2023-03-29T22:35:14.600Z,12.40
2023-03-29T22:37:44.788Z,12.40
2023-03-29T22:40:14.381Z,12.40
2023-03-29T22:42:42.678Z,12.40
2023-03-29T22:45:14.674Z,12.70
2023-03-29T22:47:42.520Z,12.60
2023-03-29T22:50:11.407Z,12.60
2023-03-29T22:52:39.338Z,12.50
2023-03-29T22:55:08.522Z,12.50
2023-03-29T22:57:36.620Z,12.40
2023-03-29T23:00:09.471Z,12.30
2023-03-29T23:02:38.192Z,12.10
2023-03-29T23:05:07.576Z,12.10
2023-03-29T23:07:36.670Z,12.30
2023-03-29T23:10:08.349Z,12.30
2023-03-29T23:12:36.428Z,12.30
2023-03-29T23:15:08.185Z,12.30
2023-03-29T23:17:37.372Z,12.40
2023-03-29T23:20:06.721Z,12.40
2023-03-29T23:22:36.496Z,12.70
2023-03-29T23:25:04.852Z,12.60
2023-03-29T23:27:33.291Z,12.70
2023-03-29T23:30:01.935Z,12.70
2023-03-29T23:32:30.638Z,13.00
2023-03-29T23:35:02.177Z,12.80
2023-03-29T23:37:30.534Z,12.80
2023-03-29T23:39:58.223Z,12.60
2023-03-29T23:42:25.996Z,12.70
2023-03-29T23:44:53.708Z,12.70
2023-03-29T23:47:21.763Z,12.80
2023-03-29T23:49:50.777Z,12.80
2023-03-29T23:52:18.658Z,12.80
2023-03-29T23:54:46.677Z,12.80
2023-03-29T23:57:14.480Z,13.00
2023-03-29T23:59:42.741Z,12.90
